Air Sicilia Virtual Airways - Route

Air Sicilia Virtual Airways - SIC017A

( IT ) LIME - 00:00
Il Caravaggio International Airport
BERGAMO ( BGY )
plane_to ( IT ) LIMJ - 00:00
Genoa Cristoforo Colombo Airport
GENOVA ( GOA )

AIRPORT NEAR NAVIGATION AIDS

Type Name Frequency
VOR-DME Orio Al Serio 112600 KHZ
NDB Orio Al Serio 377 KHZ

METAR / TAF
LIME 180350Z 02007KT CAVOK 21/17 Q1017 NOSIG

RUNWAY INFORMATION

Runway Runway length Runway width Runway elevation Runway displaced threshold Runway heading
10 9636 148 779 312 105
28 9636 148 754 427 285
12 2552 59 782 210 121
30 2552 59 782 328 301

AIRPORT FREQUENCIES

Type Name Frequency
APP MILANO APP 126.75 MHZ
ATIS ATIS 112.6 MHZ
GND ORIO GND 120.5 MHZ
TWR ORIO TWR 126.5 MHZ

AIRPORT NEAR NAVIGATION AIDS

Type Name Frequency
VOR-DME Genova 112800 KHZ
NDB Genova 318 KHZ
VOR-DME Genova Sestri 108600 KHZ

METAR / TAF
LIMJ 180350Z VRB01KT 9999 SCT060 24/18 Q1015

RUNWAY INFORMATION

Runway Runway length Runway width Runway elevation Runway displaced threshold Runway heading
10 9564 148 9 0 105
28 9564 148 12 528 285

AIRPORT FREQUENCIES

Type Name Frequency
APP APP 119.6 MHZ
ATIS ATIS 122.825 MHZ
TWR TWR 118.6 MHZ

Flightplan

VFR

Air Sicilia Virtual Airways Fleets

AVAILABLE AIRCRAFTS for route at this time in Il Caravaggio International Airport

At this time no aircraft Air Sicilia Virtual Airways is available at Il Caravaggio International Airport
Only Charter flights.

84.2375 NM

Distance in nautical miles.

€ 268,00

Ticket price for this flight.

0 h.

Estimated flight time.



07-08-2018
Aerosoft Professional Flight Planner PFPX

PFPX - Professional Flight Planner X - è un nuovo ed innovativo strumento di pianificazione del volo sviluppato da piloti e dispatcher del mondo reale. È un'aggiunta preziosa e realistica alla tua esperienza di simulaz ....


19-07-2018
Aerosoft Oslo X

L'Aeroporto di Oslo-Gardermoen (IATA: OSL, ICAO: ENGM) è il principale aeroporto norvegese e il 19° in Europa, è situato vicino alla cittadina di Ullensaker nella contea di Akershus e serve la capitale Oslo. Ha sostit ....


21-06-2018
Aerosoft Malpensa Professional P3Dv4

L'Aeroporto di Milano-Malpensa (IATA: MXP, ICAO: LIMC) è un aeroporto italiano situato nella provincia di Varese in Lombardia, ma considerato come il principale aeroporto di Milano.

È il secondo aeroporto ital ....


06-06-2018
1° Raduno Air Sicilia Virtual - parla il C.E.O.

Grande successo per il 1° Raduno di Compagnia dell'Air Sicilia Virtual, che ha visto i membri della Crew presenti il 4 giugno 2018 a Thiene ( VI ) , cimentarsi dal vivo con le reali ....


24-05-2018
Aerosoft Airport Rome XP

Tra le nostre recensioni non poteva mancare certo la nuova uscita Aerosoft per X-Plane, stiamo parlando di Airport Rome XP, finalmente un Add-on pay completo dell'Aeroporto di Roma Fiumicino per gli utilizzatori del simu ....